Time;durP1;ratioP1;P1;durP2;ratioP2;P2;SDS_P1;SDS_P2;PMS_P1;PMS_P2;Temp;Humidity;BMP_temperature;BMP_pressure;BME280_temperature;BME280_humidity;BME280_pressure;Samples;Min_cycle;Max_cycle;Signal;HPM_P1;HPM_P2
2022/06/11 00:01:09;;;;;;;10.05;7.12;;;;;;;22.87;53.58;99666.72;4449206;32;34076;-62
2022/06/11 00:03:37;;;;;;;9.95;7.30;;;;;;;22.86;53.56;99665.03;4449020;32;34504;-63
2022/06/11 00:06:05;;;;;;;8.80;6.85;;;;;;;22.87;53.68;99666.72;4449796;32;33692;-66
2022/06/11 00:08:33;;;;;;;9.07;6.78;;;;;;;23.06;53.00;99664.38;4449293;32;32896;-63
2022/06/11 00:11:01;;;;;;;10.93;6.82;;;;;;;23.09;52.93;99656.66;4449518;32;33601;-63
2022/06/11 00:13:29;;;;;;;11.68;8.02;;;;;;;23.15;53.10;99657.75;4448798;32;33783;-65
2022/06/11 00:15:56;;;;;;;9.30;7.60;;;;;;;23.23;52.70;99658.41;4448717;32;34067;-63
2022/06/11 00:18:25;;;;;;;12.13;7.57;;;;;;;23.22;52.70;99662.19;4447929;32;34492;-65
2022/06/11 00:20:53;;;;;;;9.35;7.30;;;;;;;23.01;52.90;99652.16;4450442;32;34294;-63
2022/06/11 00:23:20;;;;;;;10.35;7.10;;;;;;;22.91;53.39;99651.63;4447062;32;33588;-64
2022/06/11 00:25:48;;;;;;;11.45;8.10;;;;;;;22.75;53.75;99662.81;4448402;32;34485;-63
2022/06/11 00:28:16;;;;;;;10.32;7.55;;;;;;;22.91;53.33;99661.69;4449073;32;33419;-63
2022/06/11 00:30:43;;;;;;;10.23;7.50;;;;;;;22.84;53.57;99661.66;4447301;32;33491;-64
2022/06/11 00:33:11;;;;;;;9.40;7.00;;;;;;;22.94;53.23;99659.44;4449266;32;34087;-63
2022/06/11 00:35:40;;;;;;;9.45;7.28;;;;;;;23.05;53.19;99649.03;4446909;32;34668;-64
2022/06/11 00:38:08;;;;;;;8.75;7.00;;;;;;;22.63;54.15;99656.19;4447439;32;31841;-65
2022/06/11 00:40:39;;;;;;;8.45;6.78;;;;;;;22.97;53.29;99655.50;4446865;32;34103;-63
2022/06/11 00:43:07;;;;;;;10.15;7.80;;;;;;;22.93;53.41;99671.41;4448739;32;32505;-64
2022/06/11 00:46:33;;;;;;;10.15;7.20;;;;;;;23.06;52.95;99670.69;4445919;32;34882;-65
2022/06/11 00:49:03;;;;;;;9.63;7.57;;;;;;;23.12;52.64;99672.63;4403060;32;34902;-64
2022/06/11 00:51:31;;;;;;;9.43;7.65;;;;;;;22.90;53.34;99676.41;4404803;32;33160;-62
2022/06/11 00:54:02;;;;;;;9.57;6.85;;;;;;;23.04;52.70;99670.03;4418358;32;34038;-65
2022/06/11 00:56:36;;;;;;;9.43;7.57;;;;;;;23.11;52.54;99667.34;4443602;32;33580;-65
2022/06/11 00:59:08;;;;;;;9.68;8.23;;;;;;;22.95;53.12;99674.81;4446517;32;32147;-64
2022/06/11 01:01:36;;;;;;;9.30;7.70;;;;;;;23.08;52.75;99676.81;4446203;32;34631;-64
2022/06/11 01:04:45;;;;;;;8.57;7.15;;;;;;;23.18;52.37;99673.72;4449138;32;34273;-63
2022/06/11 01:07:36;;;;;;;8.98;7.47;;;;;;;23.21;52.40;99671.44;4447886;32;33067;-63
2022/06/11 01:10:12;;;;;;;9.70;7.82;;;;;;;23.05;52.73;99658.09;4446445;32;32913;-66
2022/06/11 01:12:46;;;;;;;11.07;7.22;;;;;;;23.16;52.47;99663.00;4448804;32;33697;-67
2022/06/11 01:15:18;;;;;;;9.73;7.68;;;;;;;23.16;52.35;99665.72;4447840;32;35237;-64
2022/06/11 01:18:07;;;;;;;9.35;7.65;;;;;;;23.17;52.30;99663.84;4440199;32;33548;-62
2022/06/11 01:21:00;;;;;;;8.07;7.10;;;;;;;23.09;52.40;99669.47;4448671;32;33479;-66
2022/06/11 01:23:46;;;;;;;9.30;7.43;;;;;;;23.17;52.18;99663.84;4449138;32;35236;-63
2022/06/11 01:26:25;;;;;;;9.32;6.90;;;;;;;23.10;52.08;99662.94;4450397;32;33882;-63
2022/06/11 01:29:19;;;;;;;11.88;6.90;;;;;;;23.23;51.98;99672.06;4440319;32;32474;-63
2022/06/11 01:31:51;;;;;;;10.98;7.87;;;;;;;23.11;52.28;99667.34;4448038;32;34645;-66
2022/06/11 01:34:31;;;;;;;8.80;6.82;;;;;;;23.10;52.16;99668.41;4448352;32;33245;-63
2022/06/11 01:37:08;;;;;;;9.65;7.20;;;;;;;23.14;51.87;99673.25;4445597;32;34064;-65
2022/06/11 01:39:42;;;;;;;8.90;7.35;;;;;;;23.13;52.08;99671.59;4450450;32;34159;-66
2022/06/11 01:42:16;;;;;;;8.90;7.22;;;;;;;22.77;53.29;99669.78;4444400;32;34730;-64
2022/06/11 01:44:44;;;;;;;9.63;7.25;;;;;;;23.00;52.47;99672.31;4441604;32;34831;-68
2022/06/11 01:47:14;;;;;;;10.70;7.43;;;;;;;23.12;51.99;99669.91;4444531;32;34153;-67
2022/06/11 01:49:45;;;;;;;9.02;7.35;;;;;;;23.19;51.94;99678.97;4443802;32;32507;-65
2022/06/11 01:52:18;;;;;;;9.90;7.05;;;;;;;23.11;51.84;99678.28;4443544;32;33115;-68
2022/06/11 01:55:07;;;;;;;8.85;6.93;;;;;;;23.06;52.13;99673.41;4445331;32;32508;-69
2022/06/11 01:58:02;;;;;;;11.43;7.50;;;;;;;23.02;52.00;99692.06;4446632;32;33648;-67
2022/06/11 02:00:34;;;;;;;10.48;7.22;;;;;;;23.09;51.92;99683.94;4445899;32;34198;-66
2022/06/11 02:03:24;;;;;;;10.00;7.55;;;;;;;23.01;52.43;99689.53;4443273;32;33290;-65
2022/06/11 02:06:33;;;;;;;8.43;7.00;;;;;;;23.14;51.76;99686.06;4445176;32;35412;-66
2022/06/11 02:09:03;;;;;;;9.52;7.22;;;;;;;23.19;51.22;99687.16;4443412;32;32398;-67
2022/06/11 02:11:41;;;;;;;9.77;6.78;;;;;;;23.23;51.45;99687.63;4443815;32;35480;-69
2022/06/11 02:14:26;;;;;;;9.30;7.22;;;;;;;23.27;51.28;99691.62;4444671;32;32955;-64
2022/06/11 02:17:07;;;;;;;9.48;7.32;;;;;;;23.27;51.20;99688.91;4442304;32;33667;-64
2022/06/11 02:19:40;;;;;;;10.30;7.37;;;;;;;23.27;51.23;99693.53;4445227;32;34079;-66
2022/06/11 02:22:29;;;;;;;9.45;7.57;;;;;;;23.18;51.14;99695.56;4444576;32;34723;-62
2022/06/11 02:25:05;;;;;;;8.90;7.10;;;;;;;23.22;51.29;99686.78;4442623;32;33295;-64
2022/06/11 02:27:34;;;;;;;8.98;7.15;;;;;;;23.26;51.28;99692.69;4445706;32;33529;-67
2022/06/11 02:30:04;;;;;;;10.65;7.70;;;;;;;23.23;50.98;99693.91;4446823;32;33124;-64
2022/06/11 02:32:32;;;;;;;10.60;7.40;;;;;;;23.07;51.32;99683.28;4437118;32;35392;-63
2022/06/11 02:35:06;;;;;;;10.73;7.75;;;;;;;23.07;51.23;99694.22;4446188;32;34445;-63
2022/06/11 02:37:41;;;;;;;11.73;7.62;;;;;;;22.36;52.85;99694.09;4448536;32;33863;-64
2022/06/11 02:40:15;;;;;;;10.02;7.12;;;;;;;22.79;52.89;99692.25;4447842;32;33568;-63
2022/06/11 02:42:44;;;;;;;9.65;7.45;;;;;;;22.89;51.67;99705.56;4445958;32;34881;-64
2022/06/11 02:45:13;;;;;;;8.40;6.68;;;;;;;22.86;51.59;99708.69;4448053;32;34788;-67
2022/06/11 02:47:42;;;;;;;11.65;8.05;;;;;;;22.96;51.70;99703.78;4443974;32;32521;-63
2022/06/11 02:50:29;;;;;;;9.82;7.22;;;;;;;22.88;51.67;99708.47;4447188;32;34813;-64
2022/06/11 02:52:58;;;;;;;9.73;7.62;;;;;;;22.78;51.54;99709.66;4446725;32;33836;-62
2022/06/11 02:55:27;;;;;;;9.68;7.97;;;;;;;22.62;51.95;99709.06;4447898;32;35141;-62
2022/06/11 02:57:55;;;;;;;11.07;7.93;;;;;;;22.77;51.83;99704.41;4448455;32;34514;-65
2022/06/11 03:00:26;;;;;;;9.30;7.65;;;;;;;22.72;51.81;99713.16;4445559;32;33745;-66
2022/06/11 03:02:54;;;;;;;10.05;7.30;;;;;;;22.64;51.88;99709.72;4448900;32;33981;-64
2022/06/11 03:05:24;;;;;;;9.85;7.68;;;;;;;22.78;51.51;99711.53;4448455;32;32159;-65
2022/06/11 03:07:52;;;;;;;8.98;8.07;;;;;;;22.79;51.45;99713.22;4448494;32;34226;-63
2022/06/11 03:10:23;;;;;;;9.55;8.10;;;;;;;22.50;52.42;99708.72;4444654;32;33844;-66
2022/06/11 03:12:51;;;;;;;10.13;8.27;;;;;;;22.47;52.36;99717.28;4448223;32;32943;-64
2022/06/11 03:15:19;;;;;;;11.50;8.30;;;;;;;22.41;52.72;99710.75;4447829;32;33251;-65
2022/06/11 03:17:49;;;;;;;11.00;8.05;;;;;;;22.34;52.95;99704.34;4446699;32;33101;-65
2022/06/11 03:20:18;;;;;;;11.57;8.02;;;;;;;22.47;52.58;99701.78;4447433;32;35207;-64
2022/06/11 03:22:46;;;;;;;9.85;8.27;;;;;;;22.18;53.41;99710.84;4447392;32;34728;-64
2022/06/11 03:25:14;;;;;;;11.00;8.63;;;;;;;22.27;53.39;99708.88;4446312;32;34477;-63
2022/06/11 03:27:41;;;;;;;10.38;7.45;;;;;;;22.14;53.85;99716.84;4444233;32;32784;-64
2022/06/11 03:30:10;;;;;;;10.63;7.57;;;;;;;22.22;53.59;99712.19;4448642;32;33751;-62
2022/06/11 03:32:39;;;;;;;10.98;8.48;;;;;;;22.07;54.72;99723.06;4446566;32;34590;-66
2022/06/11 03:35:07;;;;;;;9.57;7.93;;;;;;;22.29;53.65;99732.19;4444295;32;31999;-62
2022/06/11 03:37:35;;;;;;;11.65;8.90;;;;;;;22.27;53.57;99736.13;4447816;32;32817;-62
2022/06/11 03:40:04;;;;;;;10.00;7.45;;;;;;;22.53;53.08;99747.34;4448276;32;32607;-61
2022/06/11 03:42:32;;;;;;;10.93;8.52;;;;;;;22.65;52.89;99747.72;4447654;32;33812;-62
2022/06/11 03:44:59;;;;;;;11.12;7.43;;;;;;;22.71;52.21;99743.38;4447868;32;32269;-62
2022/06/11 03:47:27;;;;;;;10.98;7.93;;;;;;;22.54;52.71;99742.78;4445446;32;33887;-62
2022/06/11 03:49:55;;;;;;;10.73;7.80;;;;;;;22.50;52.73;99736.00;4447924;32;33721;-63
2022/06/11 03:52:23;;;;;;;9.55;7.87;;;;;;;22.20;53.75;99729.75;4448130;32;34953;-62
2022/06/11 03:54:54;;;;;;;9.70;7.53;;;;;;;22.24;53.56;99736.50;4447285;32;33233;-62
2022/06/11 03:57:23;;;;;;;9.10;7.78;;;;;;;22.44;52.95;99728.56;4447218;32;32354;-65
2022/06/11 03:59:51;;;;;;;12.70;9.18;;;;;;;22.55;53.00;99734.37;4446366;32;33864;-65
2022/06/11 04:02:18;;;;;;;8.85;7.57;;;;;;;22.53;53.15;99736.44;4446736;32;35037;-63
2022/06/11 04:04:46;;;;;;;10.05;7.90;;;;;;;22.51;53.48;99735.81;4444272;32;33190;-61
2022/06/11 04:07:14;;;;;;;10.35;7.75;;;;;;;22.67;52.99;99739.34;4446938;32;33912;-62
2022/06/11 04:09:44;;;;;;;14.02;8.23;;;;;;;22.84;52.57;99735.31;4448274;32;33870;-64
2022/06/11 04:12:15;;;;;;;10.85;8.07;;;;;;;22.81;52.82;99738.44;4447160;32;33276;-63
2022/06/11 04:14:45;;;;;;;10.82;8.43;;;;;;;22.76;53.26;99741.75;4447310;32;33474;-64
2022/06/11 04:17:16;;;;;;;11.38;7.68;;;;;;;22.90;52.98;99741.87;4446093;32;33642;-65
2022/06/11 04:19:47;;;;;;;13.35;8.23;;;;;;;22.87;53.10;99739.56;4454475;32;33762;-67
2022/06/11 04:22:16;;;;;;;12.37;8.10;;;;;;;23.06;52.58;99738.09;4446092;32;34472;-66
2022/06/11 04:24:44;;;;;;;10.07;8.05;;;;;;;23.11;52.39;99739.16;4448558;32;34363;-66
2022/06/11 04:27:14;;;;;;;9.70;7.93;;;;;;;23.11;52.52;99735.59;4447491;32;33542;-66
2022/06/11 04:29:45;;;;;;;11.88;7.75;;;;;;;22.94;53.11;99741.31;4443231;32;33131;-63
2022/06/11 04:32:15;;;;;;;10.20;7.85;;;;;;;23.09;52.68;99737.69;4447498;32;33529;-63
2022/06/11 04:34:45;;;;;;;10.27;7.57;;;;;;;23.36;52.18;99725.94;4443965;32;34899;-65
2022/06/11 04:37:14;;;;;;;9.60;7.40;;;;;;;23.34;52.38;99732.63;4445686;32;34938;-63
2022/06/11 04:39:45;;;;;;;10.73;7.57;;;;;;;23.37;52.15;99749.50;4448140;32;33860;-64
2022/06/11 04:42:13;;;;;;;9.60;8.00;;;;;;;23.59;51.86;99736.63;4445722;32;32982;-65
2022/06/11 04:44:43;;;;;;;11.40;8.05;;;;;;;23.60;51.22;99734.75;4448101;32;33324;-62
2022/06/11 04:47:13;;;;;;;8.80;7.35;;;;;;;23.58;51.53;99743.13;4446156;32;33830;-62
2022/06/11 04:49:41;;;;;;;9.63;7.20;;;;;;;23.53;52.01;99742.03;4442175;32;34758;-63
2022/06/11 04:52:08;;;;;;;9.07;6.95;;;;;;;23.62;51.74;99738.94;4446742;32;32162;-62
2022/06/11 04:54:36;;;;;;;10.30;7.12;;;;;;;23.57;51.80;99751.53;4447049;32;34367;-63
2022/06/11 04:57:04;;;;;;;14.70;7.50;;;;;;;23.77;51.25;99751.72;4447376;32;32484;-63
2022/06/11 04:59:32;;;;;;;9.88;7.00;;;;;;;23.55;52.38;99754.47;4446246;32;34616;-64
2022/06/11 05:02:02;;;;;;;8.73;6.95;;;;;;;23.65;52.17;99751.38;4448277;32;33803;-63
2022/06/11 05:04:30;;;;;;;8.88;7.10;;;;;;;23.71;52.10;99747.88;4448225;32;33903;-65
2022/06/11 05:06:57;;;;;;;10.75;7.43;;;;;;;23.93;51.75;99752.22;4448826;32;32356;-64
2022/06/11 05:09:26;;;;;;;8.90;7.25;;;;;;;23.81;52.55;99759.28;4447438;32;33766;-61
2022/06/11 05:11:54;;;;;;;9.85;7.28;;;;;;;24.06;51.05;99758.81;4445544;32;33858;-66
2022/06/11 05:14:22;;;;;;;9.80;7.47;;;;;;;23.90;52.05;99766.28;4447377;32;32018;-65
2022/06/11 05:16:50;;;;;;;11.23;7.90;;;;;;;23.97;51.22;99770.97;4447880;32;33671;-66
2022/06/11 05:19:20;;;;;;;8.80;7.47;;;;;;;23.96;51.55;99778.31;4446261;32;34922;-66
2022/06/11 05:21:48;;;;;;;10.38;8.07;;;;;;;23.92;51.57;99769.69;4447405;32;31853;-63
2022/06/11 05:24:16;;;;;;;10.85;7.70;;;;;;;24.03;51.26;99779.19;4448151;32;33549;-64
2022/06/11 05:26:49;;;;;;;9.75;7.15;;;;;;;24.07;51.05;99776.91;4446947;32;34924;-65
2022/06/11 05:29:24;;;;;;;9.73;7.32;;;;;;;24.06;51.51;99780.69;4446755;32;35180;-65
2022/06/11 05:31:52;;;;;;;9.73;7.60;;;;;;;24.04;51.46;99780.87;4448329;32;34391;-63
2022/06/11 05:34:26;;;;;;;9.48;7.22;;;;;;;23.90;51.50;99779.97;4444986;32;31922;-64
2022/06/11 05:36:55;;;;;;;9.25;7.22;;;;;;;24.02;51.66;99779.41;4446987;32;33714;-64
2022/06/11 05:39:24;;;;;;;11.20;7.95;;;;;;;24.04;51.84;99775.41;4447546;32;32842;-63
2022/06/11 05:41:52;;;;;;;8.98;7.65;;;;;;;24.00;52.08;99776.88;4448377;32;32506;-64
2022/06/11 05:44:21;;;;;;;9.65;7.75;;;;;;;24.11;51.65;99772.75;4447579;32;32485;-65
2022/06/11 05:46:50;;;;;;;9.65;7.80;;;;;;;23.68;52.34;99778.31;4441399;32;33962;-63
2022/06/11 05:49:21;;;;;;;10.23;7.50;;;;;;;23.66;53.14;99792.19;4446112;32;33979;-63
2022/06/11 05:51:52;;;;;;;12.15;7.53;;;;;;;23.99;52.54;99791.59;4447693;32;34223;-62
2022/06/11 05:54:23;;;;;;;9.68;7.25;;;;;;;24.00;52.64;99781.50;4441015;32;33678;-63
2022/06/11 05:56:51;;;;;;;9.20;7.75;;;;;;;24.19;52.50;99786.22;4446819;32;35026;-63
2022/06/11 05:59:23;;;;;;;8.95;6.85;;;;;;;24.25;51.86;99785.44;4444717;32;33849;-70
2022/06/11 06:01:51;;;;;;;8.77;7.18;;;;;;;24.21;51.83;99788.78;4442688;32;33450;-67
2022/06/11 06:04:19;;;;;;;8.88;7.05;;;;;;;24.42;51.36;99794.16;4443795;32;33110;-68
2022/06/11 06:06:46;;;;;;;8.85;7.10;;;;;;;24.20;51.78;99798.00;4447446;32;35303;-68
2022/06/11 06:09:14;;;;;;;9.07;6.82;;;;;;;24.41;51.42;99795.22;4446810;32;33129;-67
2022/06/11 06:11:42;;;;;;;9.77;7.30;;;;;;;24.54;51.23;99799.91;4445363;32;33682;-68
2022/06/11 06:14:09;;;;;;;9.10;7.47;;;;;;;24.55;51.38;99794.22;4444560;32;33107;-64
2022/06/11 06:16:37;;;;;;;9.25;7.32;;;;;;;24.24;52.05;99797.41;4446800;32;33506;-67
2022/06/11 06:19:05;;;;;;;8.95;6.97;;;;;;;24.62;51.95;99799.72;4446242;32;34821;-67
2022/06/11 06:21:34;;;;;;;8.77;6.75;;;;;;;24.33;52.67;99798.06;4446256;32;33643;-67
2022/06/11 06:24:03;;;;;;;9.30;7.03;;;;;;;24.48;52.13;99804.28;4446846;32;32019;-67
2022/06/11 06:26:31;;;;;;;8.52;6.45;;;;;;;24.59;52.09;99795.50;4445913;32;33338;-63
2022/06/11 06:28:59;;;;;;;9.00;7.15;;;;;;;24.27;52.24;99783.34;4447600;32;34903;-65
2022/06/11 06:31:27;;;;;;;8.65;6.78;;;;;;;24.61;51.84;99784.34;4447555;32;32622;-64
2022/06/11 06:34:00;;;;;;;9.55;6.20;;;;;;;24.37;51.85;99783.81;4448905;32;32727;-64
2022/06/11 06:36:29;;;;;;;9.65;6.85;;;;;;;24.05;51.44;99777.12;4448823;32;32782;-65
2022/06/11 06:38:57;;;;;;;10.40;6.65;;;;;;;24.23;52.19;99783.94;4448694;32;32834;-66
2022/06/11 06:41:25;;;;;;;8.75;6.53;;;;;;;24.75;50.84;99779.75;4449095;32;34059;-64
2022/06/11 06:43:53;;;;;;;7.97;6.82;;;;;;;25.00;50.33;99780.03;4443939;32;32184;-65
2022/06/11 06:46:21;;;;;;;8.00;6.20;;;;;;;24.48;52.38;99779.66;4446861;32;34689;-66
2022/06/11 06:48:49;;;;;;;10.32;6.93;;;;;;;23.79;51.76;99791.47;4447367;32;34110;-64
2022/06/11 06:51:18;;;;;;;7.12;5.90;;;;;;;24.58;50.43;99795.69;4446922;32;32776;-66
2022/06/11 06:53:46;;;;;;;8.10;6.45;;;;;;;24.80;49.56;99788.19;4444190;32;33236;-66
2022/06/11 06:56:14;;;;;;;8.02;5.85;;;;;;;24.34;52.03;99797.88;4447792;32;33705;-65
2022/06/11 06:58:41;;;;;;;9.75;7.00;;;;;;;24.51;51.56;99794.84;4448670;32;35130;-64
2022/06/11 07:01:09;;;;;;;8.32;7.00;;;;;;;24.90;50.63;99804.22;4445883;32;33393;-66
2022/06/11 07:03:37;;;;;;;8.77;6.40;;;;;;;24.11;52.91;99797.34;4445292;32;35129;-65
2022/06/11 07:06:05;;;;;;;10.27;6.72;;;;;;;24.50;51.91;99809.56;4442702;32;32637;-67
2022/06/11 07:08:32;;;;;;;8.23;6.25;;;;;;;24.86;50.67;99803.81;4448319;32;34656;-64
2022/06/11 07:11:00;;;;;;;9.60;6.80;;;;;;;25.18;49.43;99799.47;4447535;32;32247;-64
2022/06/11 07:13:29;;;;;;;8.35;6.53;;;;;;;25.19;48.91;99798.41;4445999;32;32157;-68
2022/06/11 07:15:57;;;;;;;7.93;6.40;;;;;;;25.35;49.37;99804.56;4446300;32;33662;-65
2022/06/11 07:18:34;;;;;;;9.15;7.35;;;;;;;25.31;49.78;99798.66;4447252;32;33815;-66
2022/06/11 07:21:04;;;;;;;8.55;6.45;;;;;;;24.53;52.17;99800.97;4447876;32;33688;-64
2022/06/11 07:23:36;;;;;;;9.05;6.28;;;;;;;24.74;52.33;99789.88;4448732;32;33554;-68
2022/06/11 07:26:08;;;;;;;9.25;6.95;;;;;;;25.24;50.07;99801.41;4449832;32;32627;-65
2022/06/11 07:28:45;;;;;;;8.30;6.50;;;;;;;25.40;49.25;99791.09;4449106;32;32832;-65
2022/06/11 07:31:12;;;;;;;8.65;6.18;;;;;;;24.85;50.39;99793.91;4446099;32;34174;-65
2022/06/11 07:33:42;;;;;;;11.85;6.97;;;;;;;25.08;49.84;99796.28;4447929;32;34758;-64
2022/06/11 07:36:12;;;;;;;8.05;5.87;;;;;;;24.97;50.88;99799.59;4448509;32;32391;-68
2022/06/11 07:38:40;;;;;;;7.93;6.65;;;;;;;25.09;50.69;99792.47;4450251;32;33462;-65
2022/06/11 07:41:07;;;;;;;8.00;6.45;;;;;;;24.97;50.90;99797.72;4450587;32;33647;-65
2022/06/11 07:43:35;;;;;;;8.82;6.28;;;;;;;24.73;52.11;99784.59;4450273;32;32127;-68
2022/06/11 07:46:03;;;;;;;8.85;6.47;;;;;;;24.65;51.80;99791.09;4447938;32;33816;-64
2022/06/11 07:48:30;;;;;;;7.80;6.15;;;;;;;25.12;49.14;99792.09;4449530;32;32727;-66
2022/06/11 07:50:58;;;;;;;7.60;5.70;;;;;;;25.08;50.96;99790.81;4450751;32;35061;-68
2022/06/11 07:53:26;;;;;;;8.27;6.37;;;;;;;25.39;50.65;99787.47;4450310;32;32176;-65
2022/06/11 07:55:54;;;;;;;7.75;6.15;;;;;;;25.61;49.96;99790.84;4451325;32;34980;-66
2022/06/11 07:58:28;;;;;;;8.32;5.82;;;;;;;25.31;50.21;99791.28;4450715;32;32680;-65
2022/06/11 08:00:57;;;;;;;7.63;6.23;;;;;;;25.49;49.86;99796.16;4451439;32;34157;-69
2022/06/11 08:03:27;;;;;;;10.48;6.55;;;;;;;25.48;50.39;99799.91;4446484;32;32309;-66
2022/06/11 08:05:55;;;;;;;7.53;5.78;;;;;;;25.97;49.46;99793.19;4447457;32;33679;-66
2022/06/11 08:08:24;;;;;;;7.87;6.07;;;;;;;25.49;49.71;99792.53;4448683;32;33936;-65
2022/06/11 08:10:58;;;;;;;7.53;5.47;;;;;;;25.73;49.16;99799.28;4449988;32;33362;-67
2022/06/11 08:13:26;;;;;;;9.23;5.55;;;;;;;25.76;48.69;99798.88;4450072;32;35215;-67
2022/06/11 08:15:54;;;;;;;7.20;5.60;;;;;;;25.66;49.05;99798.47;4449121;32;33854;-68
2022/06/11 08:18:23;;;;;;;7.32;5.62;;;;;;;26.15;47.56;99789.75;4450404;32;34270;-64
2022/06/11 08:20:51;;;;;;;11.30;5.62;;;;;;;26.17;48.08;99790.41;4450556;32;33810;-65
2022/06/11 08:23:20;;;;;;;8.00;6.05;;;;;;;26.39;47.30;99799.19;4447691;32;33651;-67
2022/06/11 08:25:49;;;;;;;8.90;5.72;;;;;;;26.43;46.66;99792.22;4450123;32;34932;-68
2022/06/11 08:28:17;;;;;;;6.78;5.28;;;;;;;26.07;48.58;99792.75;4447739;32;32841;-65
2022/06/11 08:30:45;;;;;;;8.02;5.78;;;;;;;26.47;47.72;99787.13;4449847;32;35854;-65
2022/06/11 08:33:14;;;;;;;8.05;5.85;;;;;;;26.24;47.93;99796.69;4450636;32;33504;-67
2022/06/11 08:35:42;;;;;;;7.25;5.45;;;;;;;26.73;47.83;99788.94;4450616;32;34884;-64
2022/06/11 08:38:10;;;;;;;6.78;5.50;;;;;;;26.40;47.94;99789.91;4448143;32;34998;-67
2022/06/11 08:40:43;;;;;;;6.57;5.25;;;;;;;26.55;46.87;99791.53;4451505;32;34834;-68
2022/06/11 08:43:25;;;;;;;7.85;5.75;;;;;;;26.86;47.82;99790.78;4448781;32;33405;-66
2022/06/11 08:45:55;;;;;;;7.62;6.18;;;;;;;26.61;46.66;99788.81;4445267;32;33623;-65
2022/06/11 08:48:35;;;;;;;9.98;5.95;;;;;;;27.05;46.85;99789.81;4444435;32;35539;-71
2022/06/11 08:51:05;;;;;;;8.05;5.47;;;;;;;26.69;46.08;99784.94;4448406;32;33986;-69
2022/06/11 08:53:33;;;;;;;7.37;5.68;;;;;;;26.37;46.34;99784.84;4444880;32;33397;-67
2022/06/11 08:56:01;;;;;;;7.45;5.57;;;;;;;26.48;46.79;99780.59;4449163;32;33631;-67
2022/06/11 08:58:37;;;;;;;7.55;5.30;;;;;;;26.65;47.11;99780.97;4446947;32;34587;-69
2022/06/11 09:01:25;;;;;;;7.22;5.62;;;;;;;26.85;46.99;99778.94;4448664;32;34919;-66
2022/06/11 09:04:02;;;;;;;7.00;5.20;;;;;;;27.02;46.03;99776.50;4447009;32;32155;-68
2022/06/11 09:07:00;;;;;;;7.55;6.07;;;;;;;26.90;47.15;99781.88;4449772;32;33955;-67
2022/06/11 09:09:37;;;;;;;8.45;5.45;;;;;;;27.01;44.82;99768.50;4448747;32;35849;-66
2022/06/11 09:12:16;;;;;;;7.00;5.28;;;;;;;26.58;46.48;99771.91;4447006;32;35206;-67
2022/06/11 09:14:53;;;;;;;7.00;5.35;;;;;;;27.18;44.98;99773.25;4447133;32;32485;-65
2022/06/11 09:17:41;;;;;;;9.27;5.55;;;;;;;27.06;45.68;99775.03;4446251;32;34170;-66
2022/06/11 09:20:35;;;;;;;6.87;5.57;;;;;;;27.86;44.99;99767.03;4448498;32;33581;-66
2022/06/11 09:23:25;;;;;;;7.03;5.50;;;;;;;27.62;44.89;99773.34;4448006;32;33979;-69
2022/06/11 09:26:02;;;;;;;8.18;5.68;;;;;;;27.35;44.82;99775.47;4447550;32;33093;-68
2022/06/11 09:29:05;;;;;;;6.97;5.40;;;;;;;27.72;44.31;99772.84;4449646;32;32675;-66
2022/06/11 09:31:48;;;;;;;7.93;5.53;;;;;;;28.04;43.02;99768.09;4449187;32;34799;-66
2022/06/11 09:34:41;;;;;;;9.63;5.15;;;;;;;28.15;43.46;99764.56;4448624;32;34259;-66
2022/06/11 09:37:21;;;;;;;7.07;4.90;;;;;;;27.70;42.82;99766.72;4448659;32;33181;-66
2022/06/11 09:40:04;;;;;;;7.60;5.05;;;;;;;27.79;41.99;99757.13;4456919;32;34669;-66
2022/06/11 09:42:44;;;;;;;7.60;5.00;;;;;;;28.23;42.45;99757.94;4448775;32;34991;-68
2022/06/11 09:45:32;;;;;;;8.80;4.70;;;;;;;28.26;42.33;99758.31;4449382;32;33845;-66
2022/06/11 09:48:24;;;;;;;6.10;4.87;;;;;;;28.39;42.61;99759.22;4447282;32;32827;-69
2022/06/11 09:51:12;;;;;;;6.72;4.93;;;;;;;28.44;41.55;99767.66;4446448;32;32454;-68
2022/06/11 09:53:46;;;;;;;7.82;5.03;;;;;;;28.39;42.60;99757.31;4444711;32;33777;-69
2022/06/11 09:56:26;;;;;;;7.03;5.37;;;;;;;28.53;42.10;99749.75;4449482;32;34895;-66
2022/06/11 09:59:17;;;;;;;7.32;5.15;;;;;;;28.79;41.14;99752.13;4448480;32;33088;-67
2022/06/11 10:01:52;;;;;;;7.55;5.05;;;;;;;28.72;40.95;99761.56;4444825;32;32683;-69
2022/06/11 10:04:25;;;;;;;6.32;4.45;;;;;;;28.68;40.70;99757.63;4449480;32;35070;-67
2022/06/11 10:06:59;;;;;;;7.62;4.97;;;;;;;29.02;40.49;99754.19;4448808;32;32183;-66
2022/06/11 10:09:30;;;;;;;;;;;;;;;29.23;39.81;99755.53;4446805;32;33312;-69
2022/06/11 10:12:20;;;;;;;6.78;4.87;;;;;;;28.55;41.12;99758.63;4449297;32;33138;-70
2022/06/11 10:15:14;;;;;;;7.60;5.25;;;;;;;28.29;41.73;99759.78;4444956;32;34003;-68
2022/06/11 10:18:00;;;;;;;5.95;4.70;;;;;;;28.24;41.74;99752.19;4445995;32;32704;-66
2022/06/11 10:20:40;;;;;;;7.45;5.00;;;;;;;27.98;42.16;99753.34;4448027;32;33094;-69
2022/06/11 10:23:17;;;;;;;7.15;4.62;;;;;;;27.94;42.17;99746.62;4435313;32;33369;-69
2022/06/11 10:26:18;;;;;;;7.72;5.18;;;;;;;27.56;43.12;99744.84;4431370;32;32861;-70
2022/06/11 10:28:59;;;;;;;6.45;4.28;;;;;;;27.65;42.85;99739.91;4444561;32;35007;-67
2022/06/11 10:31:45;;;;;;;6.65;4.90;;;;;;;27.89;43.10;99746.44;4446315;32;33264;-69
2022/06/11 10:34:24;;;;;;;6.57;4.68;;;;;;;27.76;43.69;99746.56;4448265;32;33799;-66
2022/06/11 10:37:05;;;;;;;7.12;5.22;;;;;;;27.18;44.97;99743.03;4445371;32;34883;-66
2022/06/11 10:40:00;;;;;;;7.10;5.00;;;;;;;27.47;41.79;99737.09;4450526;32;33511;-65
2022/06/11 10:42:52;;;;;;;6.20;4.55;;;;;;;27.39;42.12;99736.34;4448347;32;32177;-68
2022/06/11 10:45:20;;;;;;;8.18;4.70;;;;;;;27.73;42.20;99731.34;4446909;32;33882;-66
2022/06/11 10:47:50;;;;;;;6.87;4.70;;;;;;;27.66;43.29;99738.81;4443101;32;34141;-66
2022/06/11 10:50:22;;;;;;;5.93;4.40;;;;;;;27.55;44.01;99743.16;4438194;32;32756;-65
2022/06/11 10:53:15;;;;;;;6.93;4.60;;;;;;;27.36;43.67;99741.44;4444930;32;34490;-66
2022/06/11 10:55:51;;;;;;;7.53;4.65;;;;;;;28.12;42.85;99748.53;4444476;32;34988;-67
2022/06/11 10:58:42;;;;;;;6.12;4.57;;;;;;;27.69;42.33;99738.38;4450901;32;34088;-64
2022/06/11 11:01:19;;;;;;;10.73;4.22;;;;;;;28.10;42.80;99750.69;4448064;32;33797;-67
2022/06/11 11:03:57;;;;;;;5.80;4.00;;;;;;;27.74;41.80;99741.31;4432337;32;32072;-66
2022/06/11 11:06:27;;;;;;;5.32;3.90;;;;;;;27.64;41.32;99739.06;4449349;32;33994;-66
2022/06/11 11:09:00;;;;;;;5.68;3.95;;;;;;;27.07;41.94;99741.00;4446057;32;34077;-68
2022/06/11 11:11:31;;;;;;;6.22;4.32;;;;;;;27.57;41.47;99738.25;4449859;32;32656;-66
2022/06/11 11:14:07;;;;;;;6.43;4.45;;;;;;;27.87;41.13;99729.34;4449269;32;33399;-66
2022/06/11 11:16:37;;;;;;;6.35;4.10;;;;;;;27.81;41.75;99736.59;4447206;32;33932;-66
2022/06/11 11:19:15;;;;;;;7.68;4.25;;;;;;;27.28;42.30;99739.78;4448873;32;34759;-69
2022/06/11 11:21:49;;;;;;;6.37;4.10;;;;;;;27.08;42.64;99741.84;4446768;32;33887;-64
2022/06/11 11:24:20;;;;;;;7.68;4.30;;;;;;;27.29;41.82;99735.16;4435180;32;33003;-67
2022/06/11 11:26:59;;;;;;;5.68;4.03;;;;;;;27.10;43.29;99732.31;4451792;32;32722;-67
2022/06/11 11:29:31;;;;;;;5.20;3.58;;;;;;;27.96;42.04;99728.00;4443029;32;32845;-69
2022/06/11 11:32:20;;;;;;;7.10;3.90;;;;;;;27.81;40.43;99716.50;4442523;32;32934;-67
2022/06/11 11:34:49;;;;;;;6.60;4.07;;;;;;;27.71;41.41;99717.00;4444342;32;33475;-66
2022/06/11 11:37:16;;;;;;;5.62;4.22;;;;;;;27.63;42.34;99718.13;4447047;32;32306;-66
2022/06/11 11:39:55;;;;;;;6.60;3.75;;;;;;;28.00;41.60;99718.19;4447902;32;33970;-68
2022/06/11 11:42:32;;;;;;;5.65;3.67;;;;;;;27.93;40.76;99719.31;4438262;32;34453;-69
2022/06/11 11:45:18;;;;;;;7.15;3.62;;;;;;;28.22;39.65;99712.22;4449655;32;33228;-65
2022/06/11 11:47:46;;;;;;;5.40;3.80;;;;;;;28.22;40.06;99704.81;4450610;32;33538;-65
2022/06/11 11:50:13;;;;;;;7.37;4.15;;;;;;;28.44;39.89;99701.59;4450079;32;32312;-67
2022/06/11 11:52:50;;;;;;;5.15;3.55;;;;;;;28.41;39.82;99705.66;4443998;32;33730;-66
2022/06/11 11:55:28;;;;;;;6.15;3.78;;;;;;;28.60;39.32;99698.19;4442026;32;33866;-66
2022/06/11 11:58:00;;;;;;;5.45;3.80;;;;;;;28.50;38.40;99695.16;4447435;32;34429;-69
2022/06/11 12:00:30;;;;;;;5.75;3.83;;;;;;;27.97;39.17;99701.31;4449934;32;33606;-67